Time;durP1;ratioP1;P1;durP2;ratioP2;P2;SDS_P1;SDS_P2;PMS_P1;PMS_P2;Temp;Humidity;BMP_temperature;BMP_pressure;BME280_temperature;BME280_humidity;BME280_pressure;Samples;Min_cycle;Max_cycle;Signal;HPM_P1;HPM_P2
2023/01/19 00:01:33;;;;;;;19.83;8.23;;;;;;;;;;5010575;28;20029;-86
2023/01/19 00:03:59;;;;;;;14.88;7.60;;;;;;;;;;5044127;28;20531;-85
2023/01/19 00:06:24;;;;;;;15.23;7.93;;;;;;;;;;5043991;28;20468;-86
2023/01/19 00:08:49;;;;;;;14.20;7.55;;;;;;;;;;5020861;28;20033;-84
2023/01/19 00:11:18;;;;;;;13.90;7.63;;;;;;;;;;5003249;28;20033;-83
2023/01/19 00:13:49;;;;;;;15.68;8.35;;;;;;;;;;5027943;28;20079;-85
2023/01/19 00:16:16;;;;;;;12.88;7.43;;;;;;;;;;5011424;28;20033;-84
2023/01/19 00:18:42;;;;;;;;;;;;;;;;;;5026891;28;20045;-85
2023/01/19 00:21:08;;;;;;;16.02;6.75;;;;;;;;;;5026265;28;20427;-86
2023/01/19 00:23:33;;;;;;;14.38;7.43;;;;;;;;;;5027725;28;20399;-83
2023/01/19 00:25:58;;;;;;;15.48;7.25;;;;;;;;;;5025903;28;20143;-84
2023/01/19 00:28:24;;;;;;;14.82;7.47;;;;;;;;;;5024608;28;20999;-85
2023/01/19 00:30:50;;;;;;;17.90;8.23;;;;;;;;;;5020373;28;20029;-85
2023/01/19 00:33:15;;;;;;;16.45;7.93;;;;;;;;;;5031417;28;20036;-83
2023/01/19 00:35:41;;;;;;;18.80;8.40;;;;;;;;;;5065275;28;20210;-85
2023/01/19 00:38:07;;;;;;;15.35;7.88;;;;;;;;;;5046131;28;20048;-85
2023/01/19 00:40:32;;;;;;;16.95;7.40;;;;;;;;;;5047479;28;20457;-85
2023/01/19 00:42:59;;;;;;;16.55;7.63;;;;;;;;;;5031892;28;20040;-86
2023/01/19 00:45:24;;;;;;;15.77;7.90;;;;;;;;;;5028379;28;20066;-86
2023/01/19 00:47:55;;;;;;;17.20;7.35;;;;;;;;;;5029097;28;20079;-86
2023/01/19 00:50:21;;;;;;;16.33;7.93;;;;;;;;;;5031341;28;20090;-85
2023/01/19 00:52:47;;;;;;;13.30;6.75;;;;;;;;;;5048592;28;20465;-87
2023/01/19 00:55:13;;;;;;;15.60;8.07;;;;;;;;;;5031541;28;20062;-87
2023/01/19 00:57:39;;;;;;;16.90;8.50;;;;;;;;;;5047671;28;20938;-86
2023/01/19 01:00:10;;;;;;;12.90;7.13;;;;;;;;;;5030455;28;20127;-87
2023/01/19 01:02:36;;;;;;;12.82;7.15;;;;;;;;;;5047755;28;20041;-86
2023/01/19 01:05:01;;;;;;;13.68;7.55;;;;;;;;;;5031347;28;20104;-84
2023/01/19 01:07:27;;;;;;;13.05;6.85;;;;;;;;;;5047034;28;20060;-86
2023/01/19 01:09:53;;;;;;;15.27;7.20;;;;;;;;;;5047083;28;20032;-86
2023/01/19 01:12:18;;;;;;;14.98;7.40;;;;;;;;;;5047223;28;20079;-85
2023/01/19 01:14:43;;;;;;;15.77;7.85;;;;;;;;;;5031857;28;20123;-86
2023/01/19 01:17:10;;;;;;;14.50;7.90;;;;;;;;;;5046589;28;20042;-85
2023/01/19 01:19:39;;;;;;;13.85;7.07;;;;;;;;;;5047462;28;20792;-85
2023/01/19 01:22:06;;;;;;;17.13;7.60;;;;;;;;;;5046542;28;20044;-85
2023/01/19 01:24:31;;;;;;;18.88;7.13;;;;;;;;;;5047860;28;20495;-85
2023/01/19 01:26:57;;;;;;;14.90;7.03;;;;;;;;;;5045896;28;20063;-84
2023/01/19 01:29:22;;;;;;;16.63;7.88;;;;;;;;;;5013915;28;20099;-84
2023/01/19 01:31:47;;;;;;;13.40;6.88;;;;;;;;;;5010695;28;20523;-86
2023/01/19 01:34:13;;;;;;;14.85;7.40;;;;;;;;;;5026999;28;20392;-85
2023/01/19 01:36:38;;;;;;;16.42;7.82;;;;;;;;;;5009587;28;20037;-86
2023/01/19 01:39:04;;;;;;;15.82;7.30;;;;;;;;;;5010918;28;20492;-86
2023/01/19 01:41:30;;;;;;;12.52;6.32;;;;;;;;;;5042095;28;20029;-85
2023/01/19 01:44:00;;;;;;;16.13;7.13;;;;;;;;;;5027181;28;20542;-86
2023/01/19 01:46:28;;;;;;;14.93;7.15;;;;;;;;;;5026182;28;20032;-85
2023/01/19 01:49:26;;;;;;;15.38;6.60;;;;;;;;;;5027309;28;20060;-86
2023/01/19 01:51:52;;;;;;;14.23;6.47;;;;;;;;;;5022931;28;20051;-86
2023/01/19 01:54:21;;;;;;;17.15;7.15;;;;;;;;;;5010709;28;20785;-86
2023/01/19 01:56:49;;;;;;;14.82;6.95;;;;;;;;;;5026118;28;20036;-88
2023/01/19 01:59:25;;;;;;;14.77;6.93;;;;;;;;;;5027570;28;20033;-84
2023/01/19 02:04:39;;;;;;;16.00;7.63;;;;;;;;;;5020771;28;20117;-84
2023/01/19 02:15:19;;;;;;;13.32;6.60;;;;;;;;;;5027986;28;20072;-85
2023/01/19 02:17:44;;;;;;;12.30;6.32;;;;;;;;;;5026734;28;20037;-85
2023/01/19 02:20:10;;;;;;;13.13;7.10;;;;;;;;;;5014646;28;20698;-85
2023/01/19 02:22:44;;;;;;;16.10;6.97;;;;;;;;;;5025990;28;20033;-85
2023/01/19 02:25:09;;;;;;;16.38;7.63;;;;;;;;;;5026622;28;20373;-85
2023/01/19 02:27:36;;;;;;;16.15;7.80;;;;;;;;;;5010447;28;20048;-86
2023/01/19 02:30:02;;;;;;;13.23;6.68;;;;;;;;;;5029516;28;20082;-84
2023/01/19 02:32:28;;;;;;;13.10;6.88;;;;;;;;;;5061904;28;20423;-85
2023/01/19 02:34:54;;;;;;;16.13;6.55;;;;;;;;;;5045325;28;20033;-84
2023/01/19 02:37:20;;;;;;;15.88;7.07;;;;;;;;;;5023484;28;20051;-85
2023/01/19 02:39:49;;;;;;;20.08;7.90;;;;;;;;;;5045062;28;20037;-83
2023/01/19 02:42:20;;;;;;;14.77;6.38;;;;;;;;;;5039786;28;20093;-83
2023/01/19 02:44:48;;;;;;;18.67;7.88;;;;;;;;;;5024419;28;20511;-84
2023/01/19 02:47:13;;;;;;;14.68;6.93;;;;;;;;;;5032754;28;20106;-85
2023/01/19 02:49:39;;;;;;;14.43;6.70;;;;;;;;;;5041066;28;20644;-84
2023/01/19 02:52:04;;;;;;;16.25;7.90;;;;;;;;;;5044815;28;22613;-85
2023/01/19 02:54:45;;;;;;;15.25;7.35;;;;;;;;;;5028869;28;20032;-83
2023/01/19 02:57:32;;;;;;;13.60;7.28;;;;;;;;;;5045980;28;20488;-85
2023/01/19 03:00:06;;;;;;;16.42;7.40;;;;;;;;;;5045012;28;20044;-85
2023/01/19 03:02:44;;;;;;;16.60;7.82;;;;;;;;;;5048312;28;20053;-83
2023/01/19 03:05:16;;;;;;;15.55;7.65;;;;;;;;;;5061756;28;20028;-85
2023/01/19 03:08:06;;;;;;;16.15;7.53;;;;;;;;;;5044303;28;20055;-85
2023/01/19 03:10:52;;;;;;;16.10;7.78;;;;;;;;;;5044648;28;20043;-84
2023/01/19 03:13:26;;;;;;;17.88;7.55;;;;;;;;;;5063392;28;20762;-84
2023/01/19 03:15:55;;;;;;;14.95;7.13;;;;;;;;;;5036108;28;20504;-84
2023/01/19 03:18:25;;;;;;;14.82;7.93;;;;;;;;;;5029132;28;20157;-84
2023/01/19 03:20:52;;;;;;;13.70;7.75;;;;;;;;;;5040924;28;20040;-85
2023/01/19 03:23:19;;;;;;;19.73;8.35;;;;;;;;;;5062778;28;20037;-84
2023/01/19 03:25:47;;;;;;;14.65;7.50;;;;;;;;;;5043729;28;20370;-81
2023/01/19 03:28:13;;;;;;;14.85;8.27;;;;;;;;;;5034048;28;20085;-85
2023/01/19 03:30:45;;;;;;;15.95;8.30;;;;;;;;;;5019825;28;20525;-83
2023/01/19 03:33:15;;;;;;;20.38;8.15;;;;;;;;;;5046209;28;20043;-84
2023/01/19 03:35:45;;;;;;;13.98;8.02;;;;;;;;;;5021212;28;20068;-84
2023/01/19 03:38:14;;;;;;;16.17;8.07;;;;;;;;;;5025062;28;20036;-85
2023/01/19 03:40:39;;;;;;;17.85;8.00;;;;;;;;;;5028691;28;20532;-85
2023/01/19 03:43:05;;;;;;;17.48;8.00;;;;;;;;;;5017771;28;20051;-85
2023/01/19 03:45:32;;;;;;;20.23;9.25;;;;;;;;;;5044141;28;20485;-85
2023/01/19 03:47:59;;;;;;;17.80;8.30;;;;;;;;;;5027923;28;20534;-85
2023/01/19 03:50:28;;;;;;;18.13;8.70;;;;;;;;;;5022462;28;20039;-85
2023/01/19 03:53:19;;;;;;;21.48;9.48;;;;;;;;;;5009291;28;20155;-85
2023/01/19 03:55:47;;;;;;;16.92;8.30;;;;;;;;;;5025582;28;20040;-81
2023/01/19 03:58:13;;;;;;;14.73;8.73;;;;;;;;;;5026204;28;20605;-83
2023/01/19 04:00:38;;;;;;;17.85;8.70;;;;;;;;;;5027456;28;20041;-83
2023/01/19 04:03:05;;;;;;;17.95;8.20;;;;;;;;;;5029020;28;20178;-82
2023/01/19 04:05:31;;;;;;;16.23;8.60;;;;;;;;;;5043505;28;20524;-82
2023/01/19 04:07:56;;;;;;;17.10;9.57;;;;;;;;;;5027768;28;20043;-83
2023/01/19 04:10:22;;;;;;;17.70;8.93;;;;;;;;;;5027606;28;20044;-83
2023/01/19 04:12:48;;;;;;;18.95;8.90;;;;;;;;;;5045393;28;20028;-84
2023/01/19 04:15:14;;;;;;;20.63;8.68;;;;;;;;;;5044542;28;20029;-83
2023/01/19 04:17:39;;;;;;;16.65;8.98;;;;;;;;;;5044985;28;20219;-83
2023/01/19 04:20:05;;;;;;;18.10;9.13;;;;;;;;;;5033669;28;20040;-83
2023/01/19 04:22:31;;;;;;;19.38;9.80;;;;;;;;;;5049256;28;20032;-84
2023/01/19 04:24:57;;;;;;;20.85;9.25;;;;;;;;;;5061120;28;20036;-83
2023/01/19 04:27:22;;;;;;;18.73;8.85;;;;;;;;;;5047496;28;20120;-84
2023/01/19 04:29:48;;;;;;;21.85;9.98;;;;;;;;;;5027581;28;20097;-84
2023/01/19 04:32:13;;;;;;;18.15;8.90;;;;;;;;;;5031366;28;20629;-84
2023/01/19 04:34:39;;;;;;;19.00;9.32;;;;;;;;;;5031018;28;20290;-83
2023/01/19 04:37:04;;;;;;;21.52;9.48;;;;;;;;;;5046197;28;20289;-83
2023/01/19 04:39:29;;;;;;;18.50;8.57;;;;;;;;;;5031855;28;20032;-83
2023/01/19 04:41:56;;;;;;;17.00;8.10;;;;;;;;;;5047037;28;20127;-83
2023/01/19 04:44:22;;;;;;;15.63;8.87;;;;;;;;;;5025441;28;20036;-83
2023/01/19 04:46:48;;;;;;;17.52;8.95;;;;;;;;;;5047502;28;20266;-83
2023/01/19 04:49:14;;;;;;;16.05;8.48;;;;;;;;;;5022637;28;20569;-83
2023/01/19 04:51:39;;;;;;;20.63;8.85;;;;;;;;;;5065112;28;20071;-84
2023/01/19 04:54:07;;;;;;;15.55;8.18;;;;;;;;;;5030251;28;20040;-82
2023/01/19 04:56:33;;;;;;;19.40;9.15;;;;;;;;;;5047378;28;20067;-83
2023/01/19 04:58:58;;;;;;;17.00;8.38;;;;;;;;;;5048450;28;20064;-82
2023/01/19 05:01:24;;;;;;;13.52;7.07;;;;;;;;;;5063393;28;20040;-83
2023/01/19 05:03:49;;;;;;;15.75;7.78;;;;;;;;;;5064765;28;20028;-83
2023/01/19 05:06:14;;;;;;;17.60;7.72;;;;;;;;;;5047154;28;20768;-82
2023/01/19 05:08:40;;;;;;;15.20;8.15;;;;;;;;;;5031399;28;20029;-82
2023/01/19 05:11:05;;;;;;;16.02;8.23;;;;;;;;;;5030753;28;20046;-82
2023/01/19 05:13:32;;;;;;;17.25;8.20;;;;;;;;;;5030864;28;20037;-82
2023/01/19 05:15:57;;;;;;;15.07;8.23;;;;;;;;;;5047005;28;20120;-82
2023/01/19 05:18:22;;;;;;;23.35;9.10;;;;;;;;;;5030737;28;20384;-82
2023/01/19 05:20:48;;;;;;;17.75;8.60;;;;;;;;;;5029757;28;20043;-82
2023/01/19 05:23:13;;;;;;;17.80;8.93;;;;;;;;;;5031208;28;20043;-82
2023/01/19 05:25:39;;;;;;;20.08;9.93;;;;;;;;;;5046620;28;20028;-82
2023/01/19 05:28:04;;;;;;;20.40;9.60;;;;;;;;;;5027623;28;20095;-82
2023/01/19 05:30:30;;;;;;;17.77;9.18;;;;;;;;;;5014735;28;20040;-82
2023/01/19 05:32:55;;;;;;;19.50;9.40;;;;;;;;;;5014210;28;20029;-82
2023/01/19 05:35:21;;;;;;;19.05;9.07;;;;;;;;;;5009828;28;20072;-81
2023/01/19 05:37:46;;;;;;;17.45;7.63;;;;;;;;;;5015664;28;20032;-83
2023/01/19 05:40:12;;;;;;;17.20;8.27;;;;;;;;;;5027363;28;20040;-80
2023/01/19 05:42:37;;;;;;;15.75;8.73;;;;;;;;;;5009449;28;20407;-82
2023/01/19 05:45:03;;;;;;;14.73;7.75;;;;;;;;;;5010334;28;20283;-82
2023/01/19 05:47:29;;;;;;;16.20;8.27;;;;;;;;;;5009304;28;20051;-82
2023/01/19 05:49:54;;;;;;;15.00;7.65;;;;;;;;;;5025779;28;20028;-81
2023/01/19 05:52:20;;;;;;;17.02;8.13;;;;;;;;;;5009341;28;20122;-80
2023/01/19 05:54:47;;;;;;;16.67;7.30;;;;;;;;;;5026750;28;20040;-80
2023/01/19 05:57:12;;;;;;;14.52;7.80;;;;;;;;;;5025932;28;20025;-81
2023/01/19 05:59:37;;;;;;;17.10;8.85;;;;;;;;;;5009676;28;20704;-81
2023/01/19 06:02:03;;;;;;;15.85;8.13;;;;;;;;;;5025642;28;20418;-81
2023/01/19 06:04:28;;;;;;;16.75;8.15;;;;;;;;;;5014136;28;20595;-81
2023/01/19 06:06:54;;;;;;;16.35;8.45;;;;;;;;;;5025804;28;20392;-81
2023/01/19 06:09:19;;;;;;;17.30;8.10;;;;;;;;;;5025295;28;20043;-81
2023/01/19 06:11:45;;;;;;;14.95;8.38;;;;;;;;;;5025384;28;20029;-81
2023/01/19 06:14:12;;;;;;;12.05;7.28;;;;;;;;;;5007819;28;20139;-82
2023/01/19 06:16:37;;;;;;;15.48;7.50;;;;;;;;;;5013263;28;20120;-82
2023/01/19 06:19:03;;;;;;;16.13;8.07;;;;;;;;;;5026560;28;20094;-83
2023/01/19 06:21:28;;;;;;;17.05;8.23;;;;;;;;;;5012796;28;20036;-82
2023/01/19 06:23:53;;;;;;;16.48;8.13;;;;;;;;;;5026259;28;20037;-83
2023/01/19 06:26:19;;;;;;;14.25;7.63;;;;;;;;;;5025055;28;20114;-82
2023/01/19 06:28:45;;;;;;;15.43;7.90;;;;;;;;;;5018291;28;20040;-83
2023/01/19 06:31:10;;;;;;;14.38;7.65;;;;;;;;;;5022318;28;20033;-82
2023/01/19 06:33:36;;;;;;;14.25;7.25;;;;;;;;;;5021004;28;20040;-82
2023/01/19 06:36:01;;;;;;;17.42;7.53;;;;;;;;;;5041483;28;20071;-81
2023/01/19 06:38:27;;;;;;;17.15;8.50;;;;;;;;;;5025944;28;20040;-84
2023/01/19 06:40:54;;;;;;;17.15;8.65;;;;;;;;;;5024261;28;20037;-81
2023/01/19 06:43:20;;;;;;;15.38;7.68;;;;;;;;;;5025454;28;20412;-84
2023/01/19 06:45:46;;;;;;;13.38;6.93;;;;;;;;;;5040864;28;20594;-81
2023/01/19 06:48:11;;;;;;;16.52;7.38;;;;;;;;;;5043201;28;20037;-82
2023/01/19 06:50:37;;;;;;;14.70;7.43;;;;;;;;;;5041012;28;20036;-82
2023/01/19 06:53:02;;;;;;;15.05;7.57;;;;;;;;;;5042337;28;20040;-81
2023/01/19 06:55:27;;;;;;;16.02;7.80;;;;;;;;;;5041125;28;20044;-83
2023/01/19 06:57:57;;;;;;;13.73;7.50;;;;;;;;;;5025306;28;20579;-82
2023/01/19 07:00:23;;;;;;;16.08;7.47;;;;;;;;;;5019636;28;20041;-82
2023/01/19 07:02:48;;;;;;;14.85;7.25;;;;;;;;;;5025730;28;20441;-82
2023/01/19 07:05:14;;;;;;;15.40;7.80;;;;;;;;;;5025704;28;20032;-81
2023/01/19 07:07:41;;;;;;;12.77;7.00;;;;;;;;;;5021337;28;20551;-81
2023/01/19 07:10:08;;;;;;;12.10;6.72;;;;;;;;;;5042096;28;20047;-81
2023/01/19 07:12:34;;;;;;;16.23;8.00;;;;;;;;;;5024070;28;20077;-81
2023/01/19 07:15:00;;;;;;;16.42;7.65;;;;;;;;;;5023722;28;20805;-82
2023/01/19 07:17:25;;;;;;;17.08;7.88;;;;;;;;;;5040962;28;20068;-82
2023/01/19 07:19:50;;;;;;;16.52;7.50;;;;;;;;;;5024838;28;20067;-82
2023/01/19 07:22:16;;;;;;;17.98;8.52;;;;;;;;;;5041753;28;20040;-82
2023/01/19 07:24:42;;;;;;;14.35;7.15;;;;;;;;;;5041428;28;20948;-82
2023/01/19 07:27:07;;;;;;;13.75;6.78;;;;;;;;;;5040303;28;20032;-82
2023/01/19 07:29:32;;;;;;;15.65;7.70;;;;;;;;;;5042477;28;20842;-82
2023/01/19 07:31:58;;;;;;;12.60;6.53;;;;;;;;;;5026985;28;20122;-82
2023/01/19 07:34:24;;;;;;;15.45;7.20;;;;;;;;;;5028194;28;20158;-82
2023/01/19 07:36:49;;;;;;;15.15;7.60;;;;;;;;;;5028159;28;20187;-82
2023/01/19 07:39:15;;;;;;;13.77;6.50;;;;;;;;;;5044059;28;20063;-82
2023/01/19 07:41:40;;;;;;;12.05;6.30;;;;;;;;;;5028855;28;20036;-82
2023/01/19 07:44:07;;;;;;;12.40;6.68;;;;;;;;;;5044207;28;20036;-82
2023/01/19 07:46:32;;;;;;;11.32;6.63;;;;;;;;;;5044635;28;20029;-82
2023/01/19 07:48:58;;;;;;;12.43;6.60;;;;;;;;;;5028022;28;20055;-82
2023/01/19 07:51:23;;;;;;;14.13;6.80;;;;;;;;;;5060483;28;20044;-82
2023/01/19 07:53:50;;;;;;;12.23;5.57;;;;;;;;;;5001552;28;20033;-82
2023/01/19 07:56:15;;;;;;;12.20;6.57;;;;;;;;;;5044591;28;20548;-82
2023/01/19 07:58:41;;;;;;;13.88;7.20;;;;;;;;;;5044893;28;20123;-82
2023/01/19 08:01:11;;;;;;;15.05;7.00;;;;;;;;;;5045451;28;20037;-82
2023/01/19 08:03:36;;;;;;;14.88;6.22;;;;;;;;;;5065392;28;20565;-82
2023/01/19 08:06:03;;;;;;;12.75;6.80;;;;;;;;;;5047840;28;20044;-80
2023/01/19 08:08:30;;;;;;;13.75;6.20;;;;;;;;;;5032108;28;20086;-81
2023/01/19 08:10:56;;;;;;;11.88;6.60;;;;;;;;;;5031339;28;20036;-82
2023/01/19 08:13:21;;;;;;;14.10;6.82;;;;;;;;;;5047554;28;20043;-83
2023/01/19 08:15:51;;;;;;;12.95;6.13;;;;;;;;;;5047791;28;20435;-82
2023/01/19 08:18:16;;;;;;;12.55;7.20;;;;;;;;;;5047161;28;20039;-81
2023/01/19 08:20:42;;;;;;;13.90;6.85;;;;;;;;;;5047839;28;20044;-83
2023/01/19 08:23:07;;;;;;;13.38;6.38;;;;;;;;;;5031838;28;20052;-83
2023/01/19 08:25:36;;;;;;;14.27;6.32;;;;;;;;;;5063985;28;20466;-83
2023/01/19 08:28:03;;;;;;;11.82;6.22;;;;;;;;;;5028222;28;20057;-82
2023/01/19 08:30:29;;;;;;;14.15;6.53;;;;;;;;;;5029070;28;20056;-83
2023/01/19 08:33:06;;;;;;;13.55;6.13;;;;;;;;;;5029295;28;20033;-82
2023/01/19 08:35:43;;;;;;;12.90;5.72;;;;;;;;;;5028816;28;20134;-82
2023/01/19 08:38:09;;;;;;;11.57;6.40;;;;;;;;;;5041132;28;20025;-82
2023/01/19 08:40:36;;;;;;;11.27;5.97;;;;;;;;;;5027050;28;20040;-83
2023/01/19 08:43:05;;;;;;;;;;;;;;;;;;5016278;28;20443;-82
2023/01/19 08:45:31;;;;;;;10.88;5.22;;;;;;;;;;5027978;28;19920;-83
2023/01/19 08:48:00;;;;;;;11.02;5.80;;;;;;;;;;5031710;28;20037;-83
2023/01/19 08:50:29;;;;;;;11.73;6.28;;;;;;;;;;5024410;28;20041;-82
2023/01/19 08:52:56;;;;;;;11.73;5.80;;;;;;;;;;5034705;28;20089;-83
2023/01/19 08:55:22;;;;;;;14.83;6.00;;;;;;;;;;5026564;28;20037;-81
2023/01/19 08:57:51;;;;;;;10.98;5.28;;;;;;;;;;5044295;28;20090;-82
2023/01/19 09:00:17;;;;;;;9.40;5.45;;;;;;;;;;5026770;28;20041;-82
2023/01/19 09:02:42;;;;;;;10.55;5.70;;;;;;;;;;5044259;28;20538;-82
2023/01/19 09:05:08;;;;;;;9.23;5.00;;;;;;;;;;5030861;28;20037;-82
2023/01/19 09:07:33;;;;;;;12.48;5.78;;;;;;;;;;5033165;28;20064;-83
2023/01/19 09:09:59;;;;;;;9.88;5.07;;;;;;;;;;5020441;28;20029;-82
2023/01/19 09:12:24;;;;;;;8.60;4.70;;;;;;;;;;5042818;28;20029;-82
2023/01/19 09:14:49;;;;;;;9.73;5.18;;;;;;;;;;5026235;28;20060;-82
2023/01/19 09:17:16;;;;;;;12.13;5.03;;;;;;;;;;5026761;28;20471;-81
2023/01/19 09:19:42;;;;;;;10.82;4.80;;;;;;;;;;5030817;28;20033;-82
2023/01/19 09:22:07;;;;;;;9.23;4.68;;;;;;;;;;5043419;28;20105;-82
2023/01/19 09:24:33;;;;;;;10.95;5.32;;;;;;;;;;5026998;28;20052;-82
2023/01/19 09:27:00;;;;;;;9.60;4.43;;;;;;;;;;5028986;28;20112;-82
2023/01/19 09:29:25;;;;;;;9.93;4.55;;;;;;;;;;5028950;28;20495;-82
2023/01/19 09:31:51;;;;;;;9.45;4.90;;;;;;;;;;5029637;28;20036;-81
2023/01/19 09:34:16;;;;;;;13.88;4.80;;;;;;;;;;5046123;28;20379;-82
2023/01/19 09:36:41;;;;;;;8.52;4.15;;;;;;;;;;5035131;28;20523;-82
2023/01/19 09:39:08;;;;;;;11.23;4.72;;;;;;;;;;5036638;28;21058;-81
2023/01/19 09:41:34;;;;;;;9.00;4.25;;;;;;;;;;5032389;28;20047;-82
2023/01/19 09:43:59;;;;;;;8.15;4.28;;;;;;;;;;5044890;28;20067;-82
2023/01/19 09:46:40;;;;;;;8.52;4.63;;;;;;;;;;5033480;28;20495;-82
2023/01/19 09:49:23;;;;;;;8.40;4.18;;;;;;;;;;5063119;28;25521;-82
2023/01/19 09:51:52;;;;;;;9.23;4.53;;;;;;;;;;5027902;28;20040;-83
2023/01/19 09:54:32;;;;;;;6.65;4.30;;;;;;;;;;5014271;28;20044;-83
2023/01/19 09:57:01;;;;;;;6.95;3.75;;;;;;;;;;5020352;28;20044;-83
2023/01/19 09:59:31;;;;;;;11.05;4.28;;;;;;;;;;5045718;28;20041;-83
2023/01/19 10:02:02;;;;;;;9.32;4.22;;;;;;;;;;5038605;28;20531;-81
2023/01/19 10:04:30;;;;;;;9.52;4.93;;;;;;;;;;5063242;28;20426;-83
2023/01/19 10:07:03;;;;;;;8.68;4.47;;;;;;;;;;5060132;28;20033;-82
2023/01/19 10:09:55;;;;;;;8.98;4.18;;;;;;;;;;5045438;28;20122;-81
2023/01/19 10:12:29;;;;;;;8.68;3.95;;;;;;;;;;5028363;28;20028;-81
2023/01/19 10:15:06;;;;;;;9.15;4.70;;;;;;;;;;5061700;28;20036;-82
2023/01/19 10:17:40;;;;;;;8.75;4.60;;;;;;;;;;5028394;28;20041;-82
2023/01/19 10:20:14;;;;;;;8.13;4.32;;;;;;;;;;5044258;28;20587;-82
2023/01/19 10:22:42;;;;;;;9.10;4.15;;;;;;;;;;5023667;28;20037;-82
2023/01/19 10:25:14;;;;;;;9.25;4.60;;;;;;;;;;5060620;28;20822;-80
2023/01/19 10:27:41;;;;;;;8.35;4.20;;;;;;;;;;5017385;28;20040;-81
2023/01/19 10:30:09;;;;;;;8.18;4.95;;;;;;;;;;5044321;28;20086;-81
2023/01/19 10:32:35;;;;;;;8.48;4.38;;;;;;;;;;5045490;28;20044;-82
2023/01/19 10:35:10;;;;;;;7.60;4.53;;;;;;;;;;5035245;28;20037;-82
2023/01/19 10:37:43;;;;;;;8.75;4.55;;;;;;;;;;5041181;28;20036;-81
2023/01/19 10:40:08;;;;;;;8.73;4.40;;;;;;;;;;5024771;28;20044;-81
2023/01/19 10:42:35;;;;;;;6.50;3.83;;;;;;;;;;5063164;28;20036;-82
2023/01/19 10:45:00;;;;;;;7.88;4.22;;;;;;;;;;5045409;28;20086;-81
2023/01/19 10:47:32;;;;;;;8.23;4.20;;;;;;;;;;5044322;28;20032;-81
2023/01/19 10:49:57;;;;;;;8.85;4.70;;;;;;;;;;5029515;28;20040;-82
2023/01/19 10:52:34;;;;;;;8.88;4.68;;;;;;;;;;5044750;28;20106;-82
2023/01/19 10:55:02;;;;;;;8.80;4.38;;;;;;;;;;5021374;28;20113;-82
2023/01/19 10:57:35;;;;;;;7.70;4.47;;;;;;;;;;5027523;28;20032;-82
2023/01/19 11:00:01;;;;;;;7.30;4.47;;;;;;;;;;5045345;28;20071;-82
2023/01/19 11:02:28;;;;;;;10.27;5.18;;;;;;;;;;5062746;28;20047;-82
2023/01/19 11:04:58;;;;;;;8.45;4.20;;;;;;;;;;5025923;28;20032;-82
2023/01/19 11:07:33;;;;;;;7.93;4.20;;;;;;;;;;5023575;28;20039;-84
2023/01/19 11:10:19;;;;;;;9.38;4.60;;;;;;;;;;5031877;28;20519;-83
2023/01/19 11:13:18;;;;;;;8.35;4.47;;;;;;;;;;5062751;28;20045;-83
2023/01/19 11:15:51;;;;;;;8.82;4.60;;;;;;;;;;4970094;28;20039;-83
2023/01/19 11:18:37;;;;;;;8.25;4.28;;;;;;;;;;5015543;28;20526;-83
2023/01/19 11:21:05;;;;;;;8.70;4.22;;;;;;;;;;5040417;28;20039;-83
2023/01/19 11:23:40;;;;;;;8.75;4.45;;;;;;;;;;5044835;28;20035;-84
2023/01/19 11:26:16;;;;;;;8.75;4.65;;;;;;;;;;5042847;28;20416;-83
2023/01/19 11:28:46;;;;;;;8.65;4.30;;;;;;;;;;5028549;28;20067;-84
2023/01/19 11:31:12;;;;;;;6.68;3.78;;;;;;;;;;5044205;28;20062;-84
2023/01/19 11:33:46;;;;;;;7.18;3.70;;;;;;;;;;5046241;28;20063;-83
2023/01/19 11:36:20;;;;;;;8.38;4.28;;;;;;;;;;5060339;28;20028;-83
2023/01/19 11:38:49;;;;;;;7.07;4.00;;;;;;;;;;5035009;28;20124;-82
2023/01/19 11:41:38;;;;;;;7.68;3.80;;;;;;;;;;5040201;28;20120;-84
2023/01/19 11:44:21;;;;;;;8.30;4.22;;;;;;;;;;5025176;28;20037;-83
2023/01/19 11:46:55;;;;;;;8.88;4.15;;;;;;;;;;5061085;28;20536;-84
2023/01/19 11:49:48;;;;;;;7.95;3.45;;;;;;;;;;5025647;28;20037;-83
2023/01/19 11:52:36;;;;;;;8.98;4.47;;;;;;;;;;5035650;28;20040;-84
2023/01/19 11:55:04;;;;;;;8.15;3.72;;;;;;;;;;5044520;28;20039;-84
2023/01/19 11:57:30;;;;;;;7.38;4.13;;;;;;;;;;5061856;28;20043;-83
2023/01/19 12:00:02;;;;;;;6.55;3.83;;;;;;;;;;5028203;28;20495;-82
2023/01/19 12:02:31;;;;;;;7.47;3.95;;;;;;;;;;5034107;28;20381;-84
2023/01/19 12:05:04;;;;;;;7.10;4.25;;;;;;;;;;5044341;28;20040;-84
2023/01/19 12:07:32;;;;;;;8.05;3.67;;;;;;;;;;5028473;28;20135;-85
2023/01/19 12:10:22;;;;;;;7.47;4.07;;;;;;;;;;5040108;28;20543;-83
2023/01/19 12:12:48;;;;;;;8.15;4.28;;;;;;;;;;5028677;28;20033;-83
2023/01/19 12:15:21;;;;;;;10.43;4.40;;;;;;;;;;5044171;28;20047;-83
2023/01/19 12:17:49;;;;;;;9.65;4.15;;;;;;;;;;5044496;28;20033;-83
2023/01/19 12:20:26;;;;;;;7.28;3.78;;;;;;;;;;5027466;28;20120;-83
2023/01/19 12:23:01;;;;;;;7.25;4.22;;;;;;;;;;5035626;28;20396;-82
2023/01/19 12:25:50;;;;;;;8.68;4.28;;;;;;;;;;5043054;28;20541;-84
2023/01/19 12:28:17;;;;;;;7.65;3.53;;;;;;;;;;5044641;28;20044;-84
2023/01/19 12:30:43;;;;;;;6.60;3.70;;;;;;;;;;5026765;28;20050;-85
2023/01/19 12:33:20;;;;;;;5.40;3.47;;;;;;;;;;5044487;28;20488;-84
2023/01/19 12:36:03;;;;;;;6.00;3.40;;;;;;;;;;5061953;28;20556;-84
2023/01/19 12:38:43;;;;;;;7.18;3.53;;;;;;;;;;5022904;28;20040;-85
2023/01/19 12:41:30;;;;;;;6.30;3.95;;;;;;;;;;5060549;28;20047;-83
2023/01/19 12:44:15;;;;;;;9.30;3.92;;;;;;;;;;5061888;28;20446;-84
2023/01/19 12:47:02;;;;;;;6.65;3.72;;;;;;;;;;5061442;28;20674;-84
2023/01/19 12:49:59;;;;;;;7.75;3.97;;;;;;;;;;5039046;28;20070;-84
2023/01/19 12:52:46;;;;;;;7.00;3.90;;;;;;;;;;5046783;28;20039;-82
2023/01/19 12:55:11;;;;;;;7.45;4.10;;;;;;;;;;5019181;28;20032;-82
2023/01/19 12:57:37;;;;;;;7.68;4.50;;;;;;;;;;5065599;28;20039;-84
2023/01/19 13:00:20;;;;;;;8.27;4.30;;;;;;;;;;5068063;28;20120;-82
2023/01/19 13:03:00;;;;;;;7.93;4.40;;;;;;;;;;5049460;28;20384;-84
2023/01/19 13:05:31;;;;;;;8.35;4.00;;;;;;;;;;5033616;28;20828;-81
2023/01/19 13:08:06;;;;;;;8.77;4.60;;;;;;;;;;5049379;28;20155;-85
2023/01/19 13:10:52;;;;;;;8.10;4.57;;;;;;;;;;5048989;28;20067;-83
2023/01/19 13:13:31;;;;;;;7.15;4.43;;;;;;;;;;5048879;28;20041;-83
2023/01/19 13:16:38;;;;;;;7.88;4.30;;;;;;;;;;5045904;28;20036;-83
2023/01/19 13:19:04;;;;;;;8.30;4.32;;;;;;;;;;4947947;28;20026;-82
2023/01/19 13:21:34;;;;;;;9.02;4.32;;;;;;;;;;4947463;28;20050;-84
2023/01/19 13:24:07;;;;;;;7.63;4.20;;;;;;;;;;4947413;28;20073;-83
2023/01/19 13:26:35;;;;;;;8.43;4.57;;;;;;;;;;4946974;28;20047;-83
2023/01/19 13:29:13;;;;;;;9.98;4.78;;;;;;;;;;4948555;28;20043;-84
2023/01/19 13:31:41;;;;;;;8.60;4.80;;;;;;;;;;4944887;28;20454;-85
2023/01/19 13:34:13;;;;;;;;;;;;;;;;;;4943512;28;20042;-85
2023/01/19 13:36:43;;;;;;;7.65;4.25;;;;;;;;;;4930800;28;19940;-85
2023/01/19 13:39:15;;;;;;;8.80;4.30;;;;;;;;;;4947206;28;20046;-84
2023/01/19 13:41:41;;;;;;;9.15;4.82;;;;;;;;;;4945870;28;20061;-84
2023/01/19 13:44:17;;;;;;;9.63;5.25;;;;;;;;;;4946511;28;20427;-86
2023/01/19 13:46:43;;;;;;;9.52;5.18;;;;;;;;;;4944966;28;20090;-85
2023/01/19 13:49:20;;;;;;;8.55;5.15;;;;;;;;;;4932446;28;20038;-86
2023/01/19 13:51:45;;;;;;;9.45;4.80;;;;;;;;;;4963771;28;20174;-86
2023/01/19 13:54:15;;;;;;;10.07;5.25;;;;;;;;;;4946817;28;20924;-84
2023/01/19 13:56:46;;;;;;;11.15;5.68;;;;;;;;;;5017607;28;20052;-84
2023/01/19 13:59:12;;;;;;;8.73;5.07;;;;;;;;;;5023431;28;20510;-84
2023/01/19 14:01:40;;;;;;;9.88;5.60;;;;;;;;;;5027527;28;20029;-84
2023/01/19 14:04:05;;;;;;;12.80;5.63;;;;;;;;;;5030131;28;20036;-84
2023/01/19 14:06:44;;;;;;;11.52;5.55;;;;;;;;;;5046092;28;20040;-85
2023/01/19 14:09:18;;;;;;;10.23;5.70;;;;;;;;;;5046850;28;20032;-84
2023/01/19 14:11:47;;;;;;;12.00;5.85;;;;;;;;;;5016688;28;20032;-84
2023/01/19 14:14:23;;;;;;;10.55;5.63;;;;;;;;;;5019659;28;20068;-84
2023/01/19 14:16:49;;;;;;;11.13;6.10;;;;;;;;;;5039856;28;20041;-86
2023/01/19 14:19:14;;;;;;;9.70;5.65;;;;;;;;;;5031007;28;20035;-84
2023/01/19 14:21:40;;;;;;;11.80;6.07;;;;;;;;;;5045552;28;20033;-84
2023/01/19 14:24:05;;;;;;;12.18;6.22;;;;;;;;;;5029636;28;20493;-83
2023/01/19 14:26:38;;;;;;;11.10;5.68;;;;;;;;;;5040572;28;20503;-83
2023/01/19 14:29:12;;;;;;;11.50;5.63;;;;;;;;;;5018720;28;20053;-82
2023/01/19 14:31:49;;;;;;;15.07;6.30;;;;;;;;;;5015065;28;20033;-82
2023/01/19 14:34:32;;;;;;;11.00;5.93;;;;;;;;;;5009099;28;20093;-82
2023/01/19 14:36:59;;;;;;;12.95;5.68;;;;;;;;;;5025133;28;20112;-83
2023/01/19 14:39:26;;;;;;;11.70;6.15;;;;;;;;;;5003812;28;20068;-83
2023/01/19 14:41:52;;;;;;;;;;;;;;;;;;5025522;28;20982;-83
2023/01/19 14:44:23;;;;;;;11.63;5.57;;;;;;;;;;5015377;28;19917;-82
2023/01/19 14:46:52;;;;;;;12.52;5.60;;;;;;;;;;5031101;28;20029;-83
2023/01/19 14:49:35;;;;;;;12.77;6.45;;;;;;;;;;5014047;28;20047;-83
2023/01/19 14:52:04;;;;;;;12.10;6.43;;;;;;;;;;5014433;28;20041;-82
2023/01/19 14:54:39;;;;;;;11.82;6.78;;;;;;;;;;5009348;28;20492;-84
2023/01/19 14:57:10;;;;;;;10.93;6.00;;;;;;;;;;4999754;28;20078;-83
2023/01/19 14:59:35;;;;;;;13.60;6.07;;;;;;;;;;5009653;28;20677;-84